sensor_id;sensor_type;location;lat;lon;timestamp;pressure;altitude;pressure_sealevel;temperature;humidity
22241;BME280;11289;52.524;13.694;2022-09-29T00:01:22;99363.13;;;8.82;77.13
22241;BME280;11289;52.524;13.694;2022-09-29T00:03:48;99362.78;;;8.84;76.97
22241;BME280;11289;52.524;13.694;2022-09-29T00:06:15;99372.22;;;8.83;76.84
22241;BME280;11289;52.524;13.694;2022-09-29T00:08:41;99365.59;;;8.71;77.11
22241;BME280;11289;52.524;13.694;2022-09-29T00:11:08;99376.41;;;8.77;76.73
22241;BME280;11289;52.524;13.694;2022-09-29T00:13:34;99376.09;;;8.66;76.94
22241;BME280;11289;52.524;13.694;2022-09-29T00:16:01;99385.97;;;8.67;76.59
22241;BME280;11289;52.524;13.694;2022-09-29T00:18:27;99377.22;;;8.65;76.76
22241;BME280;11289;52.524;13.694;2022-09-29T00:20:57;99381.84;;;8.61;76.75
22241;BME280;11289;52.524;13.694;2022-09-29T00:23:24;99383.69;;;8.57;76.81
22241;BME280;11289;52.524;13.694;2022-09-29T00:26:05;99374.72;;;8.47;76.55
22241;BME280;11289;52.524;13.694;2022-09-29T00:28:32;99388.63;;;8.51;76.72
22241;BME280;11289;52.524;13.694;2022-09-29T00:30:59;99384.16;;;8.46;76.97
22241;BME280;11289;52.524;13.694;2022-09-29T00:33:28;99395.88;;;8.43;77.05
22241;BME280;11289;52.524;13.694;2022-09-29T00:35:57;99374.22;;;8.33;77.57
22241;BME280;11289;52.524;13.694;2022-09-29T00:38:24;99381.81;;;8.36;77.60
22241;BME280;11289;52.524;13.694;2022-09-29T00:40:49;99382.97;;;8.35;77.91
22241;BME280;11289;52.524;13.694;2022-09-29T00:43:21;99366.19;;;8.28;78.17
22241;BME280;11289;52.524;13.694;2022-09-29T00:45:48;99368.59;;;8.29;78.36
22241;BME280;11289;52.524;13.694;2022-09-29T00:48:16;99384.72;;;8.40;78.23
22241;BME280;11289;52.524;13.694;2022-09-29T00:50:48;99378.25;;;8.35;78.49
22241;BME280;11289;52.524;13.694;2022-09-29T00:53:17;99369.03;;;8.31;78.63
22241;BME280;11289;52.524;13.694;2022-09-29T00:55:51;99383.09;;;8.39;78.83
22241;BME280;11289;52.524;13.694;2022-09-29T00:58:51;99373.91;;;8.47;78.65
22241;BME280;11289;52.524;13.694;2022-09-29T01:01:21;99380.34;;;8.51;78.63
22241;BME280;11289;52.524;13.694;2022-09-29T01:03:49;99369.06;;;8.44;78.88
22241;BME280;11289;52.524;13.694;2022-09-29T01:06:20;99376.78;;;8.50;78.87
22241;BME280;11289;52.524;13.694;2022-09-29T01:08:51;99386.81;;;8.55;78.97
22241;BME280;11289;52.524;13.694;2022-09-29T01:11:22;99379.53;;;8.50;78.92
22241;BME280;11289;52.524;13.694;2022-09-29T01:13:47;99383.09;;;8.51;78.85
22241;BME280;11289;52.524;13.694;2022-09-29T01:16:13;99381.88;;;8.48;79.07
22241;BME280;11289;52.524;13.694;2022-09-29T01:18:39;99395.94;;;8.56;79.07
22241;BME280;11289;52.524;13.694;2022-09-29T01:21:34;99398.69;;;8.56;79.28
22241;BME280;11289;52.524;13.694;2022-09-29T01:27:04;99403.31;;;8.51;79.24
22241;BME280;11289;52.524;13.694;2022-09-29T01:30:11;99402.16;;;8.52;79.36
22241;BME280;11289;52.524;13.694;2022-09-29T01:32:53;99410.56;;;8.56;79.19
22241;BME280;11289;52.524;13.694;2022-09-29T01:41:10;99404.91;;;8.52;78.98
22241;BME280;11289;52.524;13.694;2022-09-29T01:43:44;99406.06;;;8.51;79.10
22241;BME280;11289;52.524;13.694;2022-09-29T01:48:48;99407.22;;;8.50;78.98
22241;BME280;11289;52.524;13.694;2022-09-29T01:51:20;99408.13;;;8.54;78.91
22241;BME280;11289;52.524;13.694;2022-09-29T01:53:48;99404.44;;;8.50;78.84
22241;BME280;11289;52.524;13.694;2022-09-29T01:56:19;99416.09;;;8.56;78.57
22241;BME280;11289;52.524;13.694;2022-09-29T01:58:58;99415.63;;;8.54;78.21
22241;BME280;11289;52.524;13.694;2022-09-29T02:01:31;99415.84;;;8.49;77.80
22241;BME280;11289;52.524;13.694;2022-09-29T02:04:24;99418.53;;;8.45;77.85
22241;BME280;11289;52.524;13.694;2022-09-29T02:06:56;99426.31;;;8.43;78.12
22241;BME280;11289;52.524;13.694;2022-09-29T02:09:29;99425.28;;;8.35;77.93
22241;BME280;11289;52.524;13.694;2022-09-29T02:11:59;99419.72;;;8.23;78.23
22241;BME280;11289;52.524;13.694;2022-09-29T02:14:29;99423.19;;;8.20;78.30
22241;BME280;11289;52.524;13.694;2022-09-29T02:17:22;99434.38;;;8.24;78.14
22241;BME280;11289;52.524;13.694;2022-09-29T02:19:51;99421.09;;;8.17;78.18
22241;BME280;11289;52.524;13.694;2022-09-29T02:22:17;99425.69;;;8.13;78.24
22241;BME280;11289;52.524;13.694;2022-09-29T02:24:42;99423.16;;;8.08;78.24
22241;BME280;11289;52.524;13.694;2022-09-29T02:27:09;99431.56;;;8.11;78.09
22241;BME280;11289;52.524;13.694;2022-09-29T02:29:35;99437.78;;;8.08;77.95
22241;BME280;11289;52.524;13.694;2022-09-29T02:32:03;99430.88;;;8.02;78.48
22241;BME280;11289;52.524;13.694;2022-09-29T02:34:31;99432.56;;;7.94;78.11
22241;BME280;11289;52.524;13.694;2022-09-29T02:37:24;99446.19;;;7.99;78.23
22241;BME280;11289;52.524;13.694;2022-09-29T02:43:23;99440.84;;;7.94;78.88
22241;BME280;11289;52.524;13.694;2022-09-29T02:54:19;99446.16;;;7.87;79.75
22241;BME280;11289;52.524;13.694;2022-09-29T02:59:44;99454.50;;;7.78;80.26
22241;BME280;11289;52.524;13.694;2022-09-29T03:02:14;99446.91;;;7.75;80.89
22241;BME280;11289;52.524;13.694;2022-09-29T03:04:40;99452.44;;;7.75;80.93
22241;BME280;11289;52.524;13.694;2022-09-29T03:07:06;99440.47;;;7.71;80.89
22241;BME280;11289;52.524;13.694;2022-09-29T03:09:31;99444.47;;;7.74;81.00
22241;BME280;11289;52.524;13.694;2022-09-29T03:11:57;99456.03;;;7.76;80.64
22241;BME280;11289;52.524;13.694;2022-09-29T03:14:23;99453.59;;;7.74;81.31
22241;BME280;11289;52.524;13.694;2022-09-29T03:16:48;99457.84;;;7.72;80.96
22241;BME280;11289;52.524;13.694;2022-09-29T03:19:13;99449.31;;;7.77;81.40
22241;BME280;11289;52.524;13.694;2022-09-29T03:21:39;99437.72;;;7.71;80.92
22241;BME280;11289;52.524;13.694;2022-09-29T03:24:04;99423.38;;;7.57;81.33
22241;BME280;11289;52.524;13.694;2022-09-29T03:26:30;99457.75;;;7.80;81.33
22241;BME280;11289;52.524;13.694;2022-09-29T03:28:56;99443.69;;;7.73;81.39
22241;BME280;11289;52.524;13.694;2022-09-29T03:31:21;99452.91;;;7.77;81.63
22241;BME280;11289;52.524;13.694;2022-09-29T03:33:47;99457.63;;;7.77;81.75
22241;BME280;11289;52.524;13.694;2022-09-29T03:36:12;99468.81;;;7.80;81.46
22241;BME280;11289;52.524;13.694;2022-09-29T03:38:37;99459.91;;;7.75;81.60
22241;BME280;11289;52.524;13.694;2022-09-29T03:41:04;99465.44;;;7.75;81.69
22241;BME280;11289;52.524;13.694;2022-09-29T03:43:29;99465.91;;;7.77;81.81
22241;BME280;11289;52.524;13.694;2022-09-29T03:45:55;99472.84;;;7.83;81.96
22241;BME280;11289;52.524;13.694;2022-09-29T03:48:22;99471.69;;;7.84;82.37
22241;BME280;11289;52.524;13.694;2022-09-29T03:50:49;99468.81;;;7.80;82.12
22241;BME280;11289;52.524;13.694;2022-09-29T03:53:15;99469.50;;;7.77;81.99
22241;BME280;11289;52.524;13.694;2022-09-29T03:55:45;99468.81;;;7.80;82.20
22241;BME280;11289;52.524;13.694;2022-09-29T03:58:11;99471.22;;;7.82;82.32
22241;BME280;11289;52.524;13.694;2022-09-29T04:00:36;99475.28;;;7.84;82.13
22241;BME280;11289;52.524;13.694;2022-09-29T04:03:02;99468.91;;;7.84;82.26
22241;BME280;11289;52.524;13.694;2022-09-29T04:05:28;99483.34;;;7.90;82.28
22241;BME280;11289;52.524;13.694;2022-09-29T04:07:54;99468.91;;;7.84;82.44
22241;BME280;11289;52.524;13.694;2022-09-29T04:10:19;99478.16;;;7.88;82.35
22241;BME280;11289;52.524;13.694;2022-09-29T04:12:45;99486.59;;;7.92;82.42
22241;BME280;11289;52.524;13.694;2022-09-29T04:15:10;99483.59;;;7.97;82.28
22241;BME280;11289;52.524;13.694;2022-09-29T04:17:35;99486.34;;;7.97;82.38
22241;BME280;11289;52.524;13.694;2022-09-29T04:20:01;99486.00;;;7.98;82.16
22241;BME280;11289;52.524;13.694;2022-09-29T04:22:26;99456.28;;;7.83;82.17
22241;BME280;11289;52.524;13.694;2022-09-29T04:24:52;99485.41;;;7.93;82.18
22241;BME280;11289;52.524;13.694;2022-09-29T04:27:17;99490.28;;;7.96;82.07
22241;BME280;11289;52.524;13.694;2022-09-29T04:29:43;99477.13;;;7.93;82.32
22241;BME280;11289;52.524;13.694;2022-09-29T04:32:09;99496.28;;;7.98;82.30
22241;BME280;11289;52.524;13.694;2022-09-29T04:34:34;99487.03;;;7.94;82.39
22241;BME280;11289;52.524;13.694;2022-09-29T04:37:00;99499.03;;;7.98;82.26
22241;BME280;11289;52.524;13.694;2022-09-29T04:39:26;99491.44;;;7.95;82.16
22241;BME280;11289;52.524;13.694;2022-09-29T04:41:51;99492.47;;;7.90;82.09
22241;BME280;11289;52.524;13.694;2022-09-29T04:44:17;99490.50;;;7.91;82.55
22241;BME280;11289;52.524;13.694;2022-09-29T04:46:44;99497.41;;;7.97;82.10
22241;BME280;11289;52.524;13.694;2022-09-29T04:49:10;99498.25;;;7.97;82.36
22241;BME280;11289;52.524;13.694;2022-09-29T04:51:35;99504.13;;;7.96;82.35
22241;BME280;11289;52.524;13.694;2022-09-29T04:54:01;99504.22;;;7.99;82.42
22241;BME280;11289;52.524;13.694;2022-09-29T04:56:26;99508.28;;;8.02;82.22
22241;BME280;11289;52.524;13.694;2022-09-29T04:58:56;99485.66;;;7.88;81.89
22241;BME280;11289;52.524;13.694;2022-09-29T05:01:21;99512.78;;;8.07;82.53
22241;BME280;11289;52.524;13.694;2022-09-29T05:03:46;99506.66;;;8.01;82.24
22241;BME280;11289;52.524;13.694;2022-09-29T05:06:12;99504.81;;;8.05;82.24
22241;BME280;11289;52.524;13.694;2022-09-29T05:08:38;99517.97;;;8.08;82.30
22241;BME280;11289;52.524;13.694;2022-09-29T05:11:05;99522.34;;;8.09;82.59
22241;BME280;11289;52.524;13.694;2022-09-29T05:13:30;99504.38;;;8.03;82.52
22241;BME280;11289;52.524;13.694;2022-09-29T05:15:56;99518.41;;;8.10;82.54
22241;BME280;11289;52.524;13.694;2022-09-29T05:18:23;99511.75;;;8.11;82.73
22241;BME280;11289;52.524;13.694;2022-09-29T05:20:48;99515.00;;;8.13;82.44
22241;BME280;11289;52.524;13.694;2022-09-29T05:23:14;99521.44;;;8.17;82.55
22241;BME280;11289;52.524;13.694;2022-09-29T05:25:39;99516.59;;;8.14;82.29
22241;BME280;11289;52.524;13.694;2022-09-29T05:28:05;99525.47;;;8.20;82.22
22241;BME280;11289;52.524;13.694;2022-09-29T05:30:30;99520.97;;;8.15;82.00
22241;BME280;11289;52.524;13.694;2022-09-29T05:32:56;99519.84;;;8.16;82.09
22241;BME280;11289;52.524;13.694;2022-09-29T05:35:21;99528.59;;;8.18;82.23
22241;BME280;11289;52.524;13.694;2022-09-29T05:37:47;99523.41;;;8.17;82.36
22241;BME280;11289;52.524;13.694;2022-09-29T05:40:12;99531.16;;;8.24;82.24
22241;BME280;11289;52.524;13.694;2022-09-29T05:42:37;99536.00;;;8.27;82.18
22241;BME280;11289;52.524;13.694;2022-09-29T05:45:05;99526.88;;;8.26;82.13
22241;BME280;11289;52.524;13.694;2022-09-29T05:47:31;99516.84;;;8.22;82.04
22241;BME280;11289;52.524;13.694;2022-09-29T05:49:56;99512.69;;;8.15;82.12
22241;BME280;11289;52.524;13.694;2022-09-29T05:52:21;99532.19;;;8.31;82.22
22241;BME280;11289;52.524;13.694;2022-09-29T05:54:47;99540.16;;;8.33;81.80
22241;BME280;11289;52.524;13.694;2022-09-29T05:57:15;99533.00;;;8.32;82.06
22241;BME280;11289;52.524;13.694;2022-09-29T05:59:40;99529.31;;;8.28;82.40
22241;BME280;11289;52.524;13.694;2022-09-29T06:02:06;99532.41;;;8.26;82.32
22241;BME280;11289;52.524;13.694;2022-09-29T06:04:31;99535.66;;;8.28;82.71
22241;BME280;11289;52.524;13.694;2022-09-29T06:06:57;99538.88;;;8.30;82.31
22241;BME280;11289;52.524;13.694;2022-09-29T06:09:23;99539.81;;;8.34;82.46
22241;BME280;11289;52.524;13.694;2022-09-29T06:11:48;99533.81;;;8.32;82.29
22241;BME280;11289;52.524;13.694;2022-09-29T06:14:13;99534.63;;;8.33;82.25
22241;BME280;11289;52.524;13.694;2022-09-29T06:16:39;99541.19;;;8.41;81.96
22241;BME280;11289;52.524;13.694;2022-09-29T06:19:05;99537.03;;;8.34;81.66
22241;BME280;11289;52.524;13.694;2022-09-29T06:21:31;99559.41;;;8.42;81.63
22241;BME280;11289;52.524;13.694;2022-09-29T06:23:58;99554.56;;;8.39;81.69
22241;BME280;11289;52.524;13.694;2022-09-29T06:26:25;99549.03;;;8.39;81.84
22241;BME280;11289;52.524;13.694;2022-09-29T06:28:52;99541.78;;;8.34;82.30
22241;BME280;11289;52.524;13.694;2022-09-29T06:31:19;99545.00;;;8.36;81.89
22241;BME280;11289;52.524;13.694;2022-09-29T06:33:45;99556.88;;;8.36;82.21
22241;BME280;11289;52.524;13.694;2022-09-29T06:36:19;99557.13;;;8.44;82.29
22241;BME280;11289;52.524;13.694;2022-09-29T06:39:05;99557.00;;;8.40;82.13
22241;BME280;11289;52.524;13.694;2022-09-29T06:41:31;99551.13;;;8.42;82.80
22241;BME280;11289;52.524;13.694;2022-09-29T06:43:56;99551.59;;;8.44;82.52
22241;BME280;11289;52.524;13.694;2022-09-29T06:46:22;99559.59;;;8.45;82.10
22241;BME280;11289;52.524;13.694;2022-09-29T06:48:48;99557.78;;;8.41;82.49
22241;BME280;11289;52.524;13.694;2022-09-29T06:51:13;99546.28;;;8.39;82.39
22241;BME280;11289;52.524;13.694;2022-09-29T06:53:39;99571.00;;;8.56;82.58
22241;BME280;11289;52.524;13.694;2022-09-29T06:56:06;99568.84;;;8.62;83.07
22241;BME280;11289;52.524;13.694;2022-09-29T06:58:33;99552.44;;;8.57;82.73
22241;BME280;11289;52.524;13.694;2022-09-29T07:00:59;99557.06;;;8.65;82.53
22241;BME280;11289;52.524;13.694;2022-09-29T07:03:26;99556.28;;;8.64;82.80
22241;BME280;11289;52.524;13.694;2022-09-29T07:05:52;99570.34;;;8.71;82.56
22241;BME280;11289;52.524;13.694;2022-09-29T07:08:17;99568.94;;;8.65;82.20
22241;BME280;11289;52.524;13.694;2022-09-29T07:10:45;99570.69;;;8.70;82.01
22241;BME280;11289;52.524;13.694;2022-09-29T07:13:10;99566.41;;;8.73;82.08
22241;BME280;11289;52.524;13.694;2022-09-29T07:15:35;99569.19;;;8.73;81.55
22241;BME280;11289;52.524;13.694;2022-09-29T07:18:02;99571.84;;;8.69;81.92
22241;BME280;11289;52.524;13.694;2022-09-29T07:20:29;99575.31;;;8.78;81.97
22241;BME280;11289;52.524;13.694;2022-09-29T07:22:58;99589.38;;;8.85;81.93
22241;BME280;11289;52.524;13.694;2022-09-29T07:25:24;99584.31;;;8.87;81.31
22241;BME280;11289;52.524;13.694;2022-09-29T07:27:50;99571.97;;;8.85;81.41
22241;BME280;11289;52.524;13.694;2022-09-29T07:30:17;99589.75;;;8.96;81.29
22241;BME280;11289;52.524;13.694;2022-09-29T07:32:43;99595.06;;;9.01;81.13
22241;BME280;11289;52.524;13.694;2022-09-29T07:35:08;99594.25;;;9.01;80.79
22241;BME280;11289;52.524;13.694;2022-09-29T07:37:34;99604.63;;;9.04;81.02
22241;BME280;11289;52.524;13.694;2022-09-29T07:39:59;99605.31;;;9.13;81.19
22241;BME280;11289;52.524;13.694;2022-09-29T07:42:26;99602.78;;;9.20;81.38
22241;BME280;11289;52.524;13.694;2022-09-29T07:44:52;99594.25;;;9.13;80.44
22241;BME280;11289;52.524;13.694;2022-09-29T07:47:18;99603.97;;;9.19;80.03
22241;BME280;11289;52.524;13.694;2022-09-29T07:49:43;99603.03;;;9.15;80.95
22241;BME280;11289;52.524;13.694;2022-09-29T07:52:09;99616.88;;;9.28;80.53
22241;BME280;11289;52.524;13.694;2022-09-29T07:54:34;99601.19;;;9.19;80.29
22241;BME280;11289;52.524;13.694;2022-09-29T07:57:00;99604.28;;;9.30;80.51
22241;BME280;11289;52.524;13.694;2022-09-29T07:59:28;99613.41;;;9.43;80.30
22241;BME280;11289;52.524;13.694;2022-09-29T08:01:53;99611.91;;;9.46;80.07
22241;BME280;11289;52.524;13.694;2022-09-29T08:04:19;99622.88;;;9.54;80.73
22241;BME280;11289;52.524;13.694;2022-09-29T08:06:44;99615.34;;;9.55;79.45
22241;BME280;11289;52.524;13.694;2022-09-29T08:09:10;99628.75;;;9.65;79.39
22241;BME280;11289;52.524;13.694;2022-09-29T08:11:37;99630.34;;;9.66;79.92
22241;BME280;11289;52.524;13.694;2022-09-29T08:14:03;99632.88;;;9.71;79.83
22241;BME280;11289;52.524;13.694;2022-09-29T08:16:29;99632.31;;;9.78;79.87
22241;BME280;11289;52.524;13.694;2022-09-29T08:18:54;99638.50;;;9.87;79.09
22241;BME280;11289;52.524;13.694;2022-09-29T08:21:20;99642.22;;;9.91;79.31
22241;BME280;11289;52.524;13.694;2022-09-29T08:23:45;99638.06;;;9.98;80.17
22241;BME280;11289;52.524;13.694;2022-09-29T08:26:16;99647.03;;;10.07;79.14
22241;BME280;11289;52.524;13.694;2022-09-29T08:28:43;99637.06;;;10.18;78.98
22241;BME280;11289;52.524;13.694;2022-09-29T08:31:14;99642.00;;;10.25;78.12
22241;BME280;11289;52.524;13.694;2022-09-29T08:33:40;99640.25;;;10.33;78.02
22241;BME280;11289;52.524;13.694;2022-09-29T08:36:06;99638.88;;;10.39;78.53
22241;BME280;11289;52.524;13.694;2022-09-29T08:38:42;99636.28;;;10.46;76.99
22241;BME280;11289;52.524;13.694;2022-09-29T08:44:05;99638.34;;;10.49;76.18
22241;BME280;11289;52.524;13.694;2022-09-29T08:46:53;99645.44;;;10.62;77.04
22241;BME280;11289;52.524;13.694;2022-09-29T08:49:23;99662.06;;;10.75;76.01
22241;BME280;11289;52.524;13.694;2022-09-29T08:51:51;99652.81;;;10.71;76.49
22241;BME280;11289;52.524;13.694;2022-09-29T08:54:33;99662.69;;;10.84;75.69
22241;BME280;11289;52.524;13.694;2022-09-29T08:57:00;99656.91;;;10.89;76.53
22241;BME280;11289;52.524;13.694;2022-09-29T08:59:27;99662.19;;;11.10;76.69
22241;BME280;11289;52.524;13.694;2022-09-29T09:04:59;99661.94;;;11.31;75.02
22241;BME280;11289;52.524;13.694;2022-09-29T09:10:29;99670.50;;;11.58;74.99
22241;BME280;11289;52.524;13.694;2022-09-29T09:21:06;99670.81;;;11.89;72.46
22241;BME280;11289;52.524;13.694;2022-09-29T09:23:48;99664.72;;;11.99;72.66
22241;BME280;11289;52.524;13.694;2022-09-29T09:26:17;99664.16;;;12.09;72.06
22241;BME280;11289;52.524;13.694;2022-09-29T09:28:55;99662.13;;;12.26;72.46
22241;BME280;11289;52.524;13.694;2022-09-29T09:34:15;99674.00;;;12.42;69.81
22241;BME280;11289;52.524;13.694;2022-09-29T09:36:51;99670.31;;;12.38;70.57
22241;BME280;11289;52.524;13.694;2022-09-29T09:39:25;99663.59;;;12.39;70.55
22241;BME280;11289;52.524;13.694;2022-09-29T09:41:55;99684.97;;;12.54;69.61
22241;BME280;11289;52.524;13.694;2022-09-29T09:44:32;99678.75;;;12.61;69.70
22241;BME280;11289;52.524;13.694;2022-09-29T09:49:44;99681.16;;;12.63;68.55
22241;BME280;11289;52.524;13.694;2022-09-29T09:52:12;99676.75;;;12.62;68.62
22241;BME280;11289;52.524;13.694;2022-09-29T09:54:54;99682.84;;;12.67;68.54
22241;BME280;11289;52.524;13.694;2022-09-29T10:00:54;99694.25;;;12.82;68.00
22241;BME280;11289;52.524;13.694;2022-09-29T10:03:21;99692.59;;;12.77;67.65
22241;BME280;11289;52.524;13.694;2022-09-29T10:05:47;99682.56;;;12.73;68.19
22241;BME280;11289;52.524;13.694;2022-09-29T10:08:25;99704.66;;;12.85;67.87
22241;BME280;11289;52.524;13.694;2022-09-29T10:10:52;99706.72;;;12.88;68.14
22241;BME280;11289;52.524;13.694;2022-09-29T10:13:18;99705.25;;;12.94;68.45
22241;BME280;11289;52.524;13.694;2022-09-29T10:15:57;99702.16;;;12.99;67.80
22241;BME280;11289;52.524;13.694;2022-09-29T10:18:47;99715.47;;;13.10;66.54
22241;BME280;11289;52.524;13.694;2022-09-29T10:21:25;99709.16;;;13.13;67.00
22241;BME280;11289;52.524;13.694;2022-09-29T10:24:00;99707.69;;;13.19;66.75
22241;BME280;11289;52.524;13.694;2022-09-29T10:26:34;99712.00;;;13.36;66.50
22241;BME280;11289;52.524;13.694;2022-09-29T10:29:15;99705.69;;;13.39;67.33
22241;BME280;11289;52.524;13.694;2022-09-29T10:31:41;99719.38;;;13.48;66.02
22241;BME280;11289;52.524;13.694;2022-09-29T10:36:51;99724.97;;;13.48;65.31
22241;BME280;11289;52.524;13.694;2022-09-29T10:39:36;99705.44;;;13.48;66.10
22241;BME280;11289;52.524;13.694;2022-09-29T10:42:03;99711.56;;;13.57;66.29
22241;BME280;11289;52.524;13.694;2022-09-29T10:44:39;99704.56;;;13.67;66.32
22241;BME280;11289;52.524;13.694;2022-09-29T10:47:13;99712.88;;;13.90;66.13
22241;BME280;11289;52.524;13.694;2022-09-29T10:49:39;99712.16;;;13.97;65.90
22241;BME280;11289;52.524;13.694;2022-09-29T10:52:33;99728.44;;;14.18;64.84
22241;BME280;11289;52.524;13.694;2022-09-29T10:55:02;99722.50;;;14.23;63.89
22241;BME280;11289;52.524;13.694;2022-09-29T10:57:32;99723.38;;;14.27;63.87
22241;BME280;11289;52.524;13.694;2022-09-29T10:59:59;99725.00;;;14.28;63.97
22241;BME280;11289;52.524;13.694;2022-09-29T11:02:30;99726.91;;;14.24;63.50
22241;BME280;11289;52.524;13.694;2022-09-29T11:04:59;99719.81;;;14.30;63.96
22241;BME280;11289;52.524;13.694;2022-09-29T11:07:26;99726.13;;;14.54;62.85
22241;BME280;11289;52.524;13.694;2022-09-29T11:09:52;99719.34;;;14.55;62.48
22241;BME280;11289;52.524;13.694;2022-09-29T11:12:29;99727.09;;;14.65;62.00
22241;BME280;11289;52.524;13.694;2022-09-29T11:14:56;99734.84;;;14.79;61.63
22241;BME280;11289;52.524;13.694;2022-09-29T11:17:27;99746.59;;;14.92;61.24
22241;BME280;11289;52.524;13.694;2022-09-29T11:19:59;99742.31;;;15.02;61.24
22241;BME280;11289;52.524;13.694;2022-09-29T11:22:47;99750.72;;;15.46;57.54
22241;BME280;11289;52.524;13.694;2022-09-29T11:25:23;99754.66;;;15.38;58.71
22241;BME280;11289;52.524;13.694;2022-09-29T11:28:24;99750.59;;;15.32;57.60
22241;BME280;11289;52.524;13.694;2022-09-29T11:31:31;99746.53;;;15.26;58.36
22241;BME280;11289;52.524;13.694;2022-09-29T11:34:57;99748.69;;;15.40;58.58
22241;BME280;11289;52.524;13.694;2022-09-29T11:40:10;99748.69;;;15.40;58.03
22241;BME280;11289;52.524;13.694;2022-09-29T11:53:42;99745.69;;;15.22;57.13
22241;BME280;11289;52.524;13.694;2022-09-29T11:56:41;99753.66;;;15.20;58.16
22241;BME280;11289;52.524;13.694;2022-09-29T12:04:37;99743.13;;;15.06;57.18
22241;BME280;11289;52.524;13.694;2022-09-29T12:12:37;99750.81;;;15.12;58.41
22241;BME280;11289;52.524;13.694;2022-09-29T12:15:20;99752.06;;;15.19;57.26
22241;BME280;11289;52.524;13.694;2022-09-29T12:17:53;99752.75;;;15.08;55.72
22241;BME280;11289;52.524;13.694;2022-09-29T12:20:25;99749.94;;;15.08;56.36
22241;BME280;11289;52.524;13.694;2022-09-29T12:22:53;99752.41;;;15.13;57.89
22241;BME280;11289;52.524;13.694;2022-09-29T12:25:23;99754.53;;;15.24;57.13
22241;BME280;11289;52.524;13.694;2022-09-29T12:27:53;99734.19;;;15.27;57.54
22241;BME280;11289;52.524;13.694;2022-09-29T12:30:27;99753.13;;;15.48;57.25
22241;BME280;11289;52.524;13.694;2022-09-29T12:35:40;99753.53;;;15.46;55.08
22241;BME280;11289;52.524;13.694;2022-09-29T12:38:34;99754.44;;;15.58;55.25
22241;BME280;11289;52.524;13.694;2022-09-29T12:43:44;99754.03;;;16.00;54.36
22241;BME280;11289;52.524;13.694;2022-09-29T12:46:30;99745.75;;;16.18;54.63
22241;BME280;11289;52.524;13.694;2022-09-29T12:49:17;99742.84;;;16.81;53.54
22241;BME280;11289;52.524;13.694;2022-09-29T12:51:47;99746.22;;;17.27;52.54
22241;BME280;11289;52.524;13.694;2022-09-29T12:57:05;99748.72;;;18.04;49.41
22241;BME280;11289;52.524;13.694;2022-09-29T13:29:22;99756.53;;;18.88;42.56
22241;BME280;11289;52.524;13.694;2022-09-29T13:31:53;99755.72;;;18.88;43.22
22241;BME280;11289;52.524;13.694;2022-09-29T13:34:33;99760.22;;;18.64;44.15
22241;BME280;11289;52.524;13.694;2022-09-29T13:37:34;99771.06;;;18.54;44.96
22241;BME280;11289;52.524;13.694;2022-09-29T13:40:07;99767.03;;;18.62;44.83
22241;BME280;11289;52.524;13.694;2022-09-29T13:42:47;99763.84;;;18.68;45.91
22241;BME280;11289;52.524;13.694;2022-09-29T13:47:47;99765.53;;;18.15;43.64
22241;BME280;11289;52.524;13.694;2022-09-29T13:50:40;99780.00;;;18.06;44.68
22241;BME280;11289;52.524;13.694;2022-09-29T13:58:33;99778.34;;;17.76;46.67
22241;BME280;11289;52.524;13.694;2022-09-29T14:01:01;99785.19;;;17.79;45.94
22241;BME280;11289;52.524;13.694;2022-09-29T14:03:35;99778.75;;;17.74;47.66
22241;BME280;11289;52.524;13.694;2022-09-29T14:06:22;99787.19;;;17.78;48.12
22241;BME280;11289;52.524;13.694;2022-09-29T14:09:02;99787.56;;;17.73;46.09
22241;BME280;11289;52.524;13.694;2022-09-29T14:11:33;99796.38;;;17.53;44.52
22241;BME280;11289;52.524;13.694;2022-09-29T14:16:54;99794.78;;;17.49;45.40
22241;BME280;11289;52.524;13.694;2022-09-29T14:21:57;99793.53;;;17.35;45.06
22241;BME280;11289;52.524;13.694;2022-09-29T14:27:29;99809.53;;;17.17;44.30
22241;BME280;11289;52.524;13.694;2022-09-29T14:35:23;99806.59;;;16.92;45.81
22241;BME280;11289;52.524;13.694;2022-09-29T14:38:19;99812.13;;;16.84;46.58
22241;BME280;11289;52.524;13.694;2022-09-29T14:40:56;99810.91;;;16.75;45.90
22241;BME280;11289;52.524;13.694;2022-09-29T14:55:25;99828.78;;;16.52;47.85
22241;BME280;11289;52.524;13.694;2022-09-29T15:02:58;99826.88;;;16.08;48.39
22241;BME280;11289;52.524;13.694;2022-09-29T15:05:26;99826.50;;;16.09;49.67
22241;BME280;11289;52.524;13.694;2022-09-29T15:07:52;99825.22;;;16.03;48.99
22241;BME280;11289;52.524;13.694;2022-09-29T15:10:24;99824.00;;;16.00;49.71
22241;BME280;11289;52.524;13.694;2022-09-29T15:12:51;99827.56;;;15.97;49.85
22241;BME280;11289;52.524;13.694;2022-09-29T15:15:35;99822.34;;;15.96;50.11
22241;BME280;11289;52.524;13.694;2022-09-29T15:18:26;99827.53;;;15.90;49.94
22241;BME280;11289;52.524;13.694;2022-09-29T15:21:20;99829.88;;;15.88;50.74
22241;BME280;11289;52.524;13.694;2022-09-29T15:24:05;99841.47;;;15.87;50.97
22241;BME280;11289;52.524;13.694;2022-09-29T15:26:34;99835.81;;;15.79;50.86
22241;BME280;11289;52.524;13.694;2022-09-29T15:29:05;99836.47;;;15.69;51.40
22241;BME280;11289;52.524;13.694;2022-09-29T15:31:31;99851.66;;;15.68;51.78
22241;BME280;11289;52.524;13.694;2022-09-29T15:33:58;99848.38;;;15.59;52.29
22241;BME280;11289;52.524;13.694;2022-09-29T15:36:25;99847.91;;;15.53;52.37
22241;BME280;11289;52.524;13.694;2022-09-29T15:38:57;99856.28;;;15.49;52.72
22241;BME280;11289;52.524;13.694;2022-09-29T15:41:23;99845.75;;;15.39;52.42
22241;BME280;11289;52.524;13.694;2022-09-29T15:49:46;99863.28;;;15.02;53.83
22241;BME280;11289;52.524;13.694;2022-09-29T15:52:06;99857.97;;;14.93;54.24
22241;BME280;11289;52.524;13.694;2022-09-29T15:54:40;99860.41;;;14.95;54.75